Kinder, Missouri
Current Conditions -  °F | °C
As of 3:53 PM on Friday 31 Oct 2014 (Local Time) from KPOF Reporting Station
Clear Clear  
Wind Chill: 11°   Ceiling: Unl
Heat Index: 11°   Visibility: 10mi
Dew Point: -7°   Wind: 16mph
Humidity: 29%   Direction: 350°N
Pressure: 30.23"   Gusts: 26mph
Location:  36.9506°N, 90.1582°W
Report Text: KPOF 312053Z AUTO 35014G23KT 10SM CLR 11/M07 A3023 RMK AO2 PK WND 34031/1958 SLP236 T01061067 51017
Loading
Personal Weather Stations






























Interactive Weather Map
Tropical Storm Tracking
New forecast layout! Learn more

10-Day Weather Forecast

Advertisements
Track Severe Weather on mobile